createdAt,value
2022-10-29T00:00:39.836Z,0
2022-10-29T00:01:40.482Z,0
2022-10-29T00:02:41.126Z,0
2022-10-29T00:03:41.643Z,0
2022-10-29T00:04:42.237Z,0
2022-10-29T00:05:42.833Z,0
2022-10-29T00:06:43.504Z,0
2022-10-29T00:07:44.099Z,0
2022-10-29T00:08:44.691Z,0
2022-10-29T00:09:45.287Z,0
2022-10-29T00:10:45.884Z,0
2022-10-29T00:11:46.479Z,0
2022-10-29T00:12:47.076Z,0
2022-10-29T00:13:47.677Z,0
2022-10-29T00:14:48.264Z,0
2022-10-29T00:15:48.881Z,0
2022-10-29T00:16:49.486Z,0
2022-10-29T00:17:50.072Z,0
2022-10-29T00:18:50.667Z,0
2022-10-29T00:19:51.264Z,0
2022-10-29T00:20:51.860Z,0
2022-10-29T00:21:52.455Z,0
2022-10-29T00:22:53.249Z,0
2022-10-29T00:23:53.926Z,0
2022-10-29T00:24:54.521Z,0
2022-10-29T00:25:55.115Z,0
2022-10-29T00:26:55.719Z,0
2022-10-29T00:27:56.308Z,0
2022-10-29T00:28:56.897Z,0
2022-10-29T00:29:57.492Z,0
2022-10-29T00:30:58.083Z,0
2022-10-29T00:31:58.757Z,0
2022-10-29T00:32:59.342Z,0
2022-10-29T00:33:59.935Z,0
2022-10-29T00:35:00.530Z,0
2022-10-29T00:36:01.125Z,0
2022-10-29T00:37:01.717Z,0
2022-10-29T00:38:02.317Z,0
2022-10-29T00:39:02.925Z,0
2022-10-29T00:40:03.506Z,0
2022-10-29T00:41:04.118Z,0
2022-10-29T00:42:04.712Z,0
2022-10-29T00:43:05.306Z,0
2022-10-29T00:44:05.910Z,0
2022-10-29T00:45:06.518Z,0
2022-10-29T00:46:07.113Z,0
2022-10-29T00:47:07.707Z,0
2022-10-29T00:48:08.305Z,0
2022-10-29T00:49:08.895Z,0
2022-10-29T00:50:09.496Z,0
2022-10-29T00:51:10.087Z,0
2022-10-29T00:52:10.683Z,0
2022-10-29T00:53:11.278Z,0
2022-10-29T00:54:11.874Z,0
2022-10-29T00:55:12.489Z,0
2022-10-29T00:56:13.084Z,0
2022-10-29T00:57:13.678Z,0
2022-10-29T00:58:14.276Z,0
2022-10-29T00:59:14.872Z,0
2022-10-29T01:00:15.468Z,0
2022-10-29T01:01:16.127Z,0
2022-10-29T01:02:16.803Z,0
2022-10-29T01:03:17.474Z,0
2022-10-29T01:04:18.072Z,0
2022-10-29T01:05:18.666Z,0
2022-10-29T01:06:19.258Z,0
2022-10-29T01:07:19.855Z,0
2022-10-29T01:08:20.449Z,0
2022-10-29T01:09:21.045Z,0
2022-10-29T01:10:21.643Z,0
2022-10-29T01:11:22.238Z,0
2022-10-29T01:12:22.835Z,0
2022-10-29T01:13:23.428Z,0
2022-10-29T01:14:24.023Z,0
2022-10-29T01:15:24.615Z,0
2022-10-29T01:16:25.212Z,0
2022-10-29T01:17:25.807Z,0
2022-10-29T01:18:26.404Z,0
2022-10-29T01:19:27.058Z,0
2022-10-29T01:20:27.646Z,0
2022-10-29T01:21:28.241Z,0
2022-10-29T01:22:28.839Z,0
2022-10-29T01:23:29.434Z,0
2022-10-29T01:24:30.029Z,0
2022-10-29T01:25:30.620Z,0
2022-10-29T01:26:31.222Z,0
2022-10-29T01:27:31.813Z,0
2022-10-29T01:28:32.422Z,0
2022-10-29T01:29:33.005Z,0
2022-10-29T01:30:33.607Z,0
2022-10-29T01:31:34.196Z,0
2022-10-29T01:32:34.791Z,0
2022-10-29T01:33:35.387Z,0
2022-10-29T01:34:35.982Z,0
2022-10-29T01:35:36.574Z,0
2022-10-29T01:36:37.172Z,0
2022-10-29T01:37:37.765Z,0
2022-10-29T01:38:38.361Z,0
2022-10-29T01:39:38.954Z,0
2022-10-29T01:40:39.549Z,0
2022-10-29T01:41:40.146Z,0
2022-10-29T01:42:40.741Z,0
2022-10-29T01:43:41.338Z,0
2022-10-29T01:44:41.934Z,0
2022-10-29T01:45:42.530Z,0
2022-10-29T01:46:43.127Z,0
2022-10-29T01:47:43.720Z,0
2022-10-29T01:48:44.317Z,0
2022-10-29T01:49:44.909Z,0
2022-10-29T01:50:45.523Z,0
2022-10-29T01:51:46.123Z,0
2022-10-29T01:52:46.720Z,0
2022-10-29T01:53:47.315Z,0
2022-10-29T01:54:47.914Z,0
2022-10-29T01:55:48.506Z,0
2022-10-29T01:56:49.101Z,0
2022-10-29T01:57:49.696Z,0
2022-10-29T01:58:50.397Z,0
2022-10-29T01:59:56.007Z,0
2022-10-29T02:00:52.496Z,0
2022-10-29T02:01:53.114Z,0
2022-10-29T02:02:53.673Z,0
2022-10-29T02:03:54.263Z,0
2022-10-29T02:04:54.861Z,0
2022-10-29T02:05:55.454Z,0
2022-10-29T02:06:56.050Z,0
2022-10-29T02:07:56.646Z,0
2022-10-29T02:08:57.242Z,0
2022-10-29T02:09:57.836Z,0
2022-10-29T02:10:58.431Z,0
2022-10-29T02:11:59.026Z,0
2022-10-29T02:12:59.720Z,0
2022-10-29T02:14:00.270Z,0
2022-10-29T02:15:00.864Z,0
2022-10-29T02:16:01.460Z,0
2022-10-29T02:17:02.055Z,0
2022-10-29T02:18:02.655Z,0
2022-10-29T02:19:03.247Z,0
2022-10-29T02:20:03.839Z,0
2022-10-29T02:21:04.434Z,0
2022-10-29T02:22:05.027Z,0
2022-10-29T02:23:05.888Z,0
2022-10-29T02:24:06.479Z,0
2022-10-29T02:25:07.115Z,0
2022-10-29T02:26:07.676Z,0
2022-10-29T02:27:08.288Z,0
2022-10-29T02:28:08.906Z,0
2022-10-29T02:29:09.465Z,0
2022-10-29T02:30:10.066Z,0
2022-10-29T02:31:10.664Z,0
2022-10-29T02:32:11.249Z,0
2022-10-29T02:33:11.844Z,0
2022-10-29T02:34:12.439Z,0
2022-10-29T02:35:13.037Z,0
2022-10-29T02:36:13.634Z,0
2022-10-29T02:37:14.230Z,0
2022-10-29T02:38:14.827Z,0
2022-10-29T02:39:15.427Z,0
2022-10-29T02:40:16.023Z,0
2022-10-29T02:41:16.618Z,0
2022-10-29T02:42:17.212Z,0
2022-10-29T02:44:18.406Z,0
2022-10-29T02:45:19.002Z,0
2022-10-29T02:46:19.597Z,0
2022-10-29T02:47:20.199Z,0
2022-10-29T02:48:20.791Z,0
2022-10-29T02:49:21.389Z,0
2022-10-29T02:50:21.985Z,0
2022-10-29T02:51:22.601Z,0
2022-10-29T02:52:23.199Z,0
2022-10-29T02:53:23.798Z,0
2022-10-29T02:54:24.413Z,0
2022-10-29T02:55:25.008Z,0
2022-10-29T02:56:25.605Z,0
2022-10-29T02:57:26.200Z,0
2022-10-29T02:58:26.799Z,0
2022-10-29T02:59:27.414Z,0
2022-10-29T03:00:28.007Z,0
2022-10-29T03:01:28.903Z,0
2022-10-29T03:02:29.373Z,0
2022-10-29T03:03:29.964Z,0
2022-10-29T03:04:30.561Z,0
2022-10-29T03:05:31.155Z,0
2022-10-29T03:06:31.752Z,0
2022-10-29T03:07:32.348Z,0
2022-10-29T03:08:32.950Z,0
2022-10-29T03:09:33.540Z,0
2022-10-29T03:10:34.137Z,0
2022-10-29T03:11:34.737Z,0
2022-10-29T03:12:35.334Z,0
2022-10-29T03:14:36.550Z,0
2022-10-29T03:15:37.149Z,0
2022-10-29T03:16:37.742Z,0
2022-10-29T03:17:38.340Z,0
2022-10-29T03:18:38.933Z,0
2022-10-29T03:19:39.530Z,0
2022-10-29T03:20:40.126Z,0
2022-10-29T03:21:40.722Z,0
2022-10-29T03:22:41.320Z,0
2022-10-29T03:23:41.920Z,0
2022-10-29T03:24:42.518Z,0
2022-10-29T03:25:43.110Z,0
2022-10-29T03:26:43.710Z,0
2022-10-29T03:27:44.306Z,0
2022-10-29T03:29:45.506Z,0
2022-10-29T03:30:46.102Z,0
2022-10-29T03:31:46.699Z,0
2022-10-29T03:32:47.296Z,0
2022-10-29T03:33:47.897Z,0
2022-10-29T03:34:48.512Z,0
2022-10-29T03:35:49.160Z,0
2022-10-29T03:36:49.747Z,0
2022-10-29T03:37:50.349Z,0
2022-10-29T03:38:50.942Z,0
2022-10-29T03:39:51.540Z,0
2022-10-29T03:40:52.140Z,0
2022-10-29T03:41:52.752Z,0
2022-10-29T03:42:53.736Z,0
2022-10-29T03:44:55.111Z,0
2022-10-29T03:45:55.706Z,0
2022-10-29T03:46:56.305Z,0
2022-10-29T03:47:57.374Z,0
2022-10-29T03:48:58.247Z,0
2022-10-29T03:49:58.846Z,0
2022-10-29T03:50:59.443Z,0
2022-10-29T03:52:00.042Z,0
2022-10-29T03:53:00.640Z,0
2022-10-29T03:54:01.240Z,0
2022-10-29T03:55:01.834Z,0
2022-10-29T03:56:02.434Z,0
2022-10-29T03:57:03.054Z,0
2022-10-29T03:58:03.650Z,0
2022-10-29T03:59:04.317Z,0
2022-10-29T04:00:04.882Z,0
2022-10-29T04:01:05.478Z,0
2022-10-29T04:02:06.192Z,0
2022-10-29T04:03:06.910Z,0
2022-10-29T04:04:07.468Z,0
2022-10-29T04:05:08.067Z,0
2022-10-29T04:06:08.661Z,0
2022-10-29T04:07:09.261Z,0
2022-10-29T04:08:09.856Z,0
2022-10-29T04:09:10.453Z,0
2022-10-29T04:10:11.050Z,0
2022-10-29T04:11:11.647Z,0
2022-10-29T04:12:12.246Z,0
2022-10-29T04:13:12.844Z,0
2022-10-29T04:14:13.454Z,0
2022-10-29T04:15:14.039Z,0
2022-10-29T04:16:14.660Z,0
2022-10-29T04:17:15.261Z,0
2022-10-29T04:18:15.857Z,0
2022-10-29T04:19:16.450Z,0
2022-10-29T04:20:41.272Z,0
2022-10-29T04:28:45.397Z,0
2022-10-29T04:29:31.355Z,0
2022-10-29T04:30:31.950Z,0
2022-10-29T04:31:32.548Z,0
2022-10-29T04:32:33.165Z,0
2022-10-29T04:33:33.760Z,0
2022-10-29T04:34:34.360Z,0
2022-10-29T04:35:34.956Z,0
2022-10-29T04:36:35.552Z,0
2022-10-29T04:37:36.151Z,0
2022-10-29T04:38:36.746Z,0
2022-10-29T04:39:37.347Z,0
2022-10-29T04:40:37.962Z,0
2022-10-29T04:41:38.560Z,0
2022-10-29T04:42:39.159Z,0
2022-10-29T04:43:39.756Z,0
2022-10-29T04:44:40.373Z,0
2022-10-29T04:45:40.973Z,0
2022-10-29T04:46:41.569Z,0
2022-10-29T04:47:42.169Z,0
2022-10-29T04:48:42.809Z,0
2022-10-29T04:49:43.373Z,0
2022-10-29T04:50:43.969Z,0
2022-10-29T04:51:44.569Z,0
2022-10-29T04:52:45.169Z,0
2022-10-29T04:53:45.764Z,0
2022-10-29T04:54:46.358Z,0
2022-10-29T04:55:46.958Z,0
2022-10-29T04:56:47.551Z,0
2022-10-29T04:57:48.151Z,0
2022-10-29T04:58:48.745Z,0
2022-10-29T04:59:49.346Z,0
2022-10-29T05:00:50.050Z,0
2022-10-29T05:01:50.618Z,0
2022-10-29T05:02:51.230Z,0
2022-10-29T05:03:55.506Z,0
2022-10-29T05:04:53.417Z,0
2022-10-29T05:05:54.014Z,0
2022-10-29T05:06:54.613Z,0
2022-10-29T05:07:55.212Z,0
2022-10-29T05:08:55.809Z,0
2022-10-29T05:09:56.424Z,0
2022-10-29T05:10:57.019Z,0
2022-10-29T05:11:57.622Z,0
2022-10-29T05:12:58.410Z,0
2022-10-29T05:13:59.087Z,0
2022-10-29T05:14:59.685Z,0
2022-10-29T05:16:00.291Z,0
2022-10-29T05:17:00.922Z,0
2022-10-29T05:18:01.481Z,0
2022-10-29T05:19:02.076Z,0
2022-10-29T05:20:02.675Z,0
2022-10-29T05:21:03.269Z,0
2022-10-29T05:22:03.869Z,0
2022-10-29T05:23:04.463Z,0
2022-10-29T05:24:05.068Z,0
2022-10-29T05:25:05.660Z,0
2022-10-29T05:26:06.263Z,0
2022-10-29T05:27:06.878Z,0
2022-10-29T05:28:07.475Z,0
2022-10-29T05:29:08.072Z,0
2022-10-29T05:30:08.670Z,0
2022-10-29T05:31:09.267Z,0
2022-10-29T05:32:09.867Z,0
2022-10-29T05:33:10.475Z,0
2022-10-29T05:34:11.063Z,0
2022-10-29T05:35:11.660Z,0
2022-10-29T05:36:12.261Z,0
2022-10-29T05:37:12.857Z,0
2022-10-29T05:38:13.463Z,0
2022-10-29T05:39:14.057Z,0
2022-10-29T05:40:14.652Z,0
2022-10-29T05:41:15.253Z,4
2022-10-29T05:42:15.850Z,4
2022-10-29T05:43:16.458Z,4
2022-10-29T05:44:17.044Z,4
2022-10-29T05:45:17.644Z,4
2022-10-29T05:46:18.239Z,4
2022-10-29T05:47:18.838Z,8
2022-10-29T05:48:19.437Z,8
2022-10-29T05:49:20.047Z,12
2022-10-29T05:50:20.637Z,12
2022-10-29T05:51:21.234Z,16
2022-10-29T05:52:21.835Z,16
2022-10-29T05:53:22.432Z,24
2022-10-29T05:54:23.035Z,24
2022-10-29T05:55:23.629Z,28
2022-10-29T05:56:24.227Z,36
2022-10-29T05:57:24.825Z,40
2022-10-29T05:58:25.423Z,48
2022-10-29T05:59:31.018Z,56
2022-10-29T06:00:26.634Z,64
2022-10-29T06:01:27.274Z,80
2022-10-29T06:02:27.984Z,92
2022-10-29T06:03:28.598Z,108
2022-10-29T06:04:29.199Z,128
2022-10-29T06:05:29.798Z,140
2022-10-29T06:06:30.462Z,160
2022-10-29T06:07:31.009Z,176
2022-10-29T06:08:31.610Z,200
2022-10-29T06:09:32.210Z,216
2022-10-29T06:10:32.812Z,240
2022-10-29T06:11:33.414Z,264
2022-10-29T06:12:34.904Z,288
2022-10-29T06:13:35.605Z,316
2022-10-29T06:14:36.210Z,340
2022-10-29T06:15:36.808Z,368
2022-10-29T06:16:37.409Z,392
2022-10-29T06:17:38.009Z,428
2022-10-29T06:18:38.608Z,468
2022-10-29T06:20:40.698Z,552
2022-10-29T06:21:41.294Z,596
2022-10-29T06:22:41.895Z,640
2022-10-29T06:23:42.513Z,684
2022-10-29T06:24:43.112Z,744
2022-10-29T06:25:43.713Z,812
2022-10-29T06:26:44.316Z,884
2022-10-29T06:27:44.914Z,948
2022-10-29T06:28:45.518Z,1016
2022-10-29T06:29:46.118Z,1084
2022-10-29T06:30:46.721Z,1160
2022-10-29T06:31:47.320Z,1240
2022-10-29T06:32:47.920Z,1324
2022-10-29T06:33:48.548Z,1412
2022-10-29T06:34:49.145Z,1500
2022-10-29T06:35:49.743Z,1580
2022-10-29T06:36:50.346Z,1656
2022-10-29T06:37:50.966Z,1728
2022-10-29T06:38:51.567Z,1804
2022-10-29T06:39:52.168Z,1876
2022-10-29T06:40:52.767Z,1944
2022-10-29T06:41:53.386Z,2016
2022-10-29T06:42:53.989Z,2092
2022-10-29T06:43:54.590Z,2176
2022-10-29T06:44:55.195Z,2268
2022-10-29T06:45:55.794Z,2360
2022-10-29T06:46:56.397Z,2452
2022-10-29T06:47:57.310Z,2548
2022-10-29T06:48:58.110Z,2656
2022-10-29T06:49:58.711Z,2756
2022-10-29T06:50:59.333Z,2856
2022-10-29T06:51:59.936Z,2956
2022-10-29T06:53:00.701Z,3044
2022-10-29T06:54:01.303Z,3140
2022-10-29T06:55:01.907Z,3216
2022-10-29T06:56:02.507Z,3288
2022-10-29T06:57:03.129Z,3368
2022-10-29T06:58:03.752Z,3432
2022-10-29T06:59:04.354Z,3500
2022-10-29T07:00:08.354Z,3596
2022-10-29T07:01:06.552Z,3700
2022-10-29T07:02:07.200Z,3836
2022-10-29T07:03:07.750Z,3968
2022-10-29T07:04:08.350Z,4116
2022-10-29T07:05:08.954Z,4240
2022-10-29T07:06:09.556Z,4344
2022-10-29T07:07:10.162Z,4456
2022-10-29T07:08:10.764Z,4596
2022-10-29T07:09:11.370Z,4752
2022-10-29T07:10:11.971Z,4944
2022-10-29T07:11:12.574Z,5156
2022-10-29T07:12:13.177Z,5332
2022-10-29T07:13:13.780Z,5492
2022-10-29T07:14:14.382Z,5764
2022-10-29T07:15:14.986Z,5932
2022-10-29T07:16:15.588Z,6152
2022-10-29T07:17:16.192Z,6336
2022-10-29T07:18:16.794Z,6528
2022-10-29T07:19:17.396Z,6592
2022-10-29T07:20:17.999Z,6752
2022-10-29T07:21:18.603Z,6720
2022-10-29T07:22:19.202Z,6700
2022-10-29T07:23:19.908Z,6748
2022-10-29T07:24:20.475Z,6792
2022-10-29T07:25:21.099Z,6784
2022-10-29T07:26:21.720Z,6804
2022-10-29T07:27:22.380Z,6860
2022-10-29T07:28:22.924Z,6956
2022-10-29T07:29:23.529Z,7044
2022-10-29T07:30:24.204Z,7112
2022-10-29T07:31:24.868Z,7148
2022-10-29T07:32:25.469Z,7200
2022-10-29T07:33:26.073Z,7188
2022-10-29T07:34:26.676Z,7220
2022-10-29T07:35:27.277Z,7200
2022-10-29T07:36:27.881Z,7196
2022-10-29T07:37:28.500Z,7112
2022-10-29T07:38:29.104Z,7036
2022-10-29T07:39:29.707Z,7196
2022-10-29T07:40:30.308Z,7260
2022-10-29T07:41:30.911Z,7396
2022-10-29T07:42:31.512Z,7608
2022-10-29T07:43:32.121Z,7660
2022-10-29T07:44:32.720Z,7884
2022-10-29T07:45:33.322Z,8084
2022-10-29T07:46:33.926Z,8216
2022-10-29T07:47:34.528Z,8308
2022-10-29T07:48:35.129Z,8356
2022-10-29T07:49:35.730Z,8316
2022-10-29T07:50:36.331Z,8488
2022-10-29T07:51:36.936Z,8596
2022-10-29T07:52:37.536Z,8872
2022-10-29T07:53:38.139Z,9068
2022-10-29T07:54:38.739Z,9388
2022-10-29T07:55:39.342Z,9704
2022-10-29T07:56:42.406Z,10304
2022-10-29T07:57:41.543Z,10968
2022-10-29T07:58:42.142Z,11472
2022-10-29T07:59:42.746Z,11848
2022-10-29T08:00:43.387Z,12508
2022-10-29T08:01:44.055Z,12708
2022-10-29T08:02:44.636Z,12792
2022-10-29T08:03:45.237Z,13144
2022-10-29T08:04:45.840Z,13372
2022-10-29T08:05:46.442Z,13088
2022-10-29T08:06:47.046Z,13356
2022-10-29T08:07:47.648Z,12924
2022-10-29T08:08:48.249Z,12784
2022-10-29T08:09:48.851Z,12728
2022-10-29T08:10:49.472Z,12928
2022-10-29T08:11:50.081Z,13288
2022-10-29T08:12:50.699Z,11940
2022-10-29T08:13:51.302Z,11640
2022-10-29T08:14:51.903Z,11308
2022-10-29T08:15:52.523Z,10848
2022-10-29T08:16:53.107Z,10812
2022-10-29T08:17:53.710Z,10884
2022-10-29T08:18:54.311Z,11476
2022-10-29T08:19:54.913Z,11868
2022-10-29T08:20:55.514Z,12360
2022-10-29T08:21:56.118Z,12744
2022-10-29T08:22:56.872Z,12880
2022-10-29T08:23:57.572Z,13060
2022-10-29T08:24:58.171Z,13392
2022-10-29T08:25:58.775Z,13336
2022-10-29T08:26:59.379Z,13452
2022-10-29T08:27:59.983Z,14840
2022-10-29T08:29:00.581Z,13652
2022-10-29T08:30:01.189Z,13164
2022-10-29T08:31:01.788Z,13620
2022-10-29T08:32:02.391Z,13980
2022-10-29T08:33:02.991Z,14620
2022-10-29T08:34:07.225Z,16740
2022-10-29T08:35:05.188Z,19488
2022-10-29T08:36:05.795Z,20288
2022-10-29T08:37:06.392Z,17540
2022-10-29T08:38:07.012Z,19520
2022-10-29T08:39:07.598Z,21344
2022-10-29T08:40:08.200Z,21888
2022-10-29T08:41:08.804Z,21248
2022-10-29T08:42:09.405Z,21728
2022-10-29T08:43:10.006Z,22336
2022-10-29T08:44:10.666Z,22784
2022-10-29T08:45:11.222Z,19296
2022-10-29T08:46:11.827Z,19296
2022-10-29T08:47:12.427Z,19776
2022-10-29T08:48:13.027Z,20864
2022-10-29T08:49:13.630Z,22496
2022-10-29T08:50:14.234Z,21216
2022-10-29T08:51:14.840Z,23424
2022-10-29T08:52:15.438Z,18272
2022-10-29T08:53:24.546Z,17516
2022-10-29T08:54:30.300Z,17408
2022-10-29T08:55:19.229Z,17096
2022-10-29T08:56:19.831Z,16880
2022-10-29T08:57:20.434Z,16868
2022-10-29T08:58:21.036Z,16776
2022-10-29T08:59:21.644Z,16428
2022-10-29T09:00:22.258Z,16324
2022-10-29T09:01:22.929Z,16244
2022-10-29T09:02:23.613Z,15772
2022-10-29T09:03:24.167Z,14900
2022-10-29T09:04:24.771Z,14080
2022-10-29T09:05:25.371Z,13644
2022-10-29T09:06:25.986Z,13256
2022-10-29T09:07:26.578Z,12964
2022-10-29T09:08:27.180Z,12848
2022-10-29T09:09:27.783Z,12684
2022-10-29T09:10:28.384Z,12544
2022-10-29T09:11:28.989Z,12456
2022-10-29T09:12:29.591Z,12596
2022-10-29T09:13:30.197Z,12760
2022-10-29T09:14:30.797Z,12788
2022-10-29T09:15:31.400Z,12584
2022-10-29T09:16:32.052Z,12012
2022-10-29T09:17:32.606Z,11072
2022-10-29T09:18:33.207Z,9920
2022-10-29T09:19:33.808Z,8744
2022-10-29T09:20:34.410Z,7876
2022-10-29T09:21:35.016Z,7452
2022-10-29T09:22:35.613Z,7472
2022-10-29T09:23:36.216Z,7892
2022-10-29T09:24:36.817Z,8480
2022-10-29T09:25:37.419Z,8952
2022-10-29T09:26:38.022Z,9256
2022-10-29T09:27:38.624Z,9656
2022-10-29T09:28:39.228Z,10428
2022-10-29T09:29:39.828Z,11668
2022-10-29T09:30:40.430Z,13096
2022-10-29T09:31:41.030Z,14476
2022-10-29T09:32:41.660Z,15716
2022-10-29T09:33:42.254Z,16892
2022-10-29T09:34:42.868Z,18208
2022-10-29T09:35:43.475Z,19104
2022-10-29T09:36:44.075Z,20000
2022-10-29T09:37:44.676Z,20832
2022-10-29T09:38:45.278Z,21824
2022-10-29T09:39:45.880Z,23456
2022-10-29T09:40:46.492Z,29280
2022-10-29T09:41:47.112Z,30848
2022-10-29T09:42:47.716Z,32704
2022-10-29T09:43:48.316Z,31264
2022-10-29T09:44:48.919Z,31264
2022-10-29T09:45:49.521Z,30816
2022-10-29T09:46:50.122Z,34112
2022-10-29T09:47:50.724Z,33344
2022-10-29T09:48:51.325Z,31680
2022-10-29T09:49:51.930Z,29952
2022-10-29T09:50:52.543Z,28032
2022-10-29T09:51:53.134Z,27104
2022-10-29T09:52:54.011Z,28032
2022-10-29T09:53:54.800Z,31232
2022-10-29T09:54:55.405Z,31008
2022-10-29T09:55:56.003Z,30528
2022-10-29T09:56:56.608Z,30688
2022-10-29T09:57:57.208Z,31264
2022-10-29T09:58:57.824Z,31520
2022-10-29T09:59:58.414Z,31040
2022-10-29T10:00:59.014Z,29216
2022-10-29T10:01:59.673Z,27648
2022-10-29T10:03:00.890Z,26176
2022-10-29T10:05:02.438Z,23744
2022-10-29T10:06:03.042Z,22912
2022-10-29T10:07:03.637Z,22272
2022-10-29T10:08:04.240Z,22112
2022-10-29T10:09:04.844Z,23072
2022-10-29T10:10:05.442Z,23456
2022-10-29T10:11:06.044Z,23232
2022-10-29T10:12:06.647Z,23232
2022-10-29T10:13:07.249Z,23648
2022-10-29T10:14:07.850Z,25376
2022-10-29T10:15:08.452Z,31072
2022-10-29T10:16:09.058Z,35776
2022-10-29T10:17:09.659Z,48992
2022-10-29T10:18:10.282Z,44448
2022-10-29T10:19:10.885Z,61152
2022-10-29T10:20:11.504Z,59936
2022-10-29T10:21:12.106Z,49952
2022-10-29T10:22:15.475Z,48384
2022-10-29T10:23:14.304Z,57248
2022-10-29T10:24:14.910Z,70144
2022-10-29T10:25:15.559Z,36032
2022-10-29T10:26:16.117Z,35296
2022-10-29T10:27:16.719Z,37696
2022-10-29T10:28:17.322Z,40160
2022-10-29T10:29:17.931Z,41856
2022-10-29T10:30:18.527Z,36416
2022-10-29T10:31:19.126Z,45120
2022-10-29T10:32:19.729Z,47968
2022-10-29T10:33:20.364Z,36096
2022-10-29T10:34:20.940Z,48608
2022-10-29T10:35:21.534Z,43424
2022-10-29T10:36:22.139Z,49312
2022-10-29T10:37:22.737Z,41888
2022-10-29T10:38:23.342Z,36736
2022-10-29T10:39:23.942Z,31360
2022-10-29T10:40:24.704Z,27520
2022-10-29T10:41:25.322Z,28576
2022-10-29T10:42:25.943Z,28032
2022-10-29T10:43:26.543Z,32608
2022-10-29T10:44:27.146Z,55488
2022-10-29T10:45:27.769Z,55904
2022-10-29T10:46:28.352Z,59008
2022-10-29T10:47:28.954Z,67264
2022-10-29T10:48:33.553Z,74304
2022-10-29T10:49:31.149Z,71296
2022-10-29T10:50:31.753Z,69504
2022-10-29T10:51:32.366Z,41184
2022-10-29T10:52:32.955Z,40640
2022-10-29T10:53:33.560Z,32192
2022-10-29T10:54:34.192Z,32416
2022-10-29T10:55:34.767Z,31072
2022-10-29T10:56:35.372Z,31968
2022-10-29T10:57:35.973Z,33088
2022-10-29T10:58:36.577Z,35392
2022-10-29T10:59:37.198Z,35296
2022-10-29T11:00:37.845Z,34528
2022-10-29T11:01:38.537Z,34080
2022-10-29T11:02:39.196Z,33568
2022-10-29T11:03:39.779Z,37792
2022-10-29T11:04:40.385Z,41568
2022-10-29T11:05:40.985Z,38912
2022-10-29T11:06:41.589Z,49760
2022-10-29T11:07:42.191Z,57248
2022-10-29T11:08:42.793Z,71584
2022-10-29T11:09:43.396Z,49120
2022-10-29T11:10:43.998Z,57664
2022-10-29T11:11:44.603Z,58080
2022-10-29T11:12:45.221Z,60512
2022-10-29T11:13:45.825Z,65120
2022-10-29T11:14:46.427Z,51200
2022-10-29T11:15:47.030Z,60416
2022-10-29T11:16:47.629Z,58400
2022-10-29T11:17:53.708Z,55200
2022-10-29T11:18:49.828Z,46432
2022-10-29T11:19:50.448Z,38400
2022-10-29T11:20:51.052Z,33536
2022-10-29T11:21:51.653Z,55264
2022-10-29T11:22:52.257Z,52544
2022-10-29T11:23:52.858Z,35872
2022-10-29T11:24:53.463Z,64544
2022-10-29T11:25:54.062Z,62528
2022-10-29T11:26:54.666Z,65376
2022-10-29T11:27:55.267Z,65824
2022-10-29T11:28:55.879Z,62432
2022-10-29T11:29:56.479Z,67968
2022-10-29T11:30:57.084Z,77152
2022-10-29T11:31:57.686Z,82208
2022-10-29T11:32:58.808Z,78944
2022-10-29T11:33:59.635Z,72800
2022-10-29T11:35:00.257Z,67424
2022-10-29T11:36:01.844Z,67008
2022-10-29T11:37:02.461Z,71328
2022-10-29T11:38:03.088Z,72032
2022-10-29T11:39:03.687Z,70656
2022-10-29T11:40:04.287Z,71360
2022-10-29T11:41:05.008Z,71232
2022-10-29T11:42:05.512Z,69312
2022-10-29T11:43:09.155Z,69568
2022-10-29T11:44:07.149Z,74240
2022-10-29T11:45:07.755Z,66624
2022-10-29T11:46:08.356Z,47072
2022-10-29T11:47:08.969Z,40128
2022-10-29T11:48:09.589Z,34016
2022-10-29T11:49:10.166Z,64800
2022-10-29T11:50:10.771Z,71392
2022-10-29T11:51:11.372Z,70656
2022-10-29T11:52:11.972Z,66304
2022-10-29T11:53:12.576Z,46400
2022-10-29T11:54:13.178Z,27392
2022-10-29T11:55:13.782Z,27552
2022-10-29T11:56:14.383Z,25472
2022-10-29T11:57:14.990Z,33920
2022-10-29T11:58:15.587Z,25696
2022-10-29T11:59:16.190Z,25536
2022-10-29T12:00:16.796Z,27168
2022-10-29T12:01:17.469Z,42336
2022-10-29T12:02:18.095Z,64448
2022-10-29T12:03:18.797Z,75232
2022-10-29T12:04:22.994Z,64544
2022-10-29T12:05:20.966Z,57312
2022-10-29T12:06:21.566Z,50816
2022-10-29T12:07:22.169Z,56288
2022-10-29T12:08:22.773Z,55040
2022-10-29T12:09:23.372Z,63424
2022-10-29T12:10:23.976Z,41088
2022-10-29T12:11:24.576Z,50592
2022-10-29T12:12:25.179Z,33888
2022-10-29T12:13:25.781Z,30784
2022-10-29T12:14:26.383Z,46592
2022-10-29T12:15:26.993Z,48224
2022-10-29T12:16:27.610Z,65856
2022-10-29T12:17:28.301Z,58016
2022-10-29T12:18:28.856Z,65824
2022-10-29T12:19:29.461Z,70208
2022-10-29T12:20:30.066Z,77216
2022-10-29T12:21:30.696Z,78240
2022-10-29T12:22:31.294Z,73440
2022-10-29T12:23:31.903Z,69152
2022-10-29T12:24:32.502Z,71840
2022-10-29T12:25:33.108Z,66688
2022-10-29T12:26:33.709Z,53632
2022-10-29T12:27:34.313Z,56032
2022-10-29T12:28:34.917Z,62048
2022-10-29T12:29:35.518Z,58624
2022-10-29T12:30:36.121Z,54048
2022-10-29T12:31:36.793Z,41952
2022-10-29T12:32:37.326Z,32992
2022-10-29T12:33:37.929Z,25536
2022-10-29T12:34:38.529Z,23392
2022-10-29T12:35:39.132Z,50112
2022-10-29T12:36:39.731Z,56992
2022-10-29T12:37:40.336Z,59680
2022-10-29T12:38:40.967Z,57248
2022-10-29T12:39:41.544Z,30912
2022-10-29T12:40:42.146Z,59936
2022-10-29T12:41:42.748Z,47488
2022-10-29T12:42:43.350Z,28512
2022-10-29T12:43:43.955Z,27488
2022-10-29T12:44:45.439Z,24768
2022-10-29T12:46:14.409Z,24256
2022-10-29T12:46:47.669Z,23776
2022-10-29T12:47:48.266Z,22752
2022-10-29T12:48:49.245Z,21472
2022-10-29T12:49:49.847Z,19872
2022-10-29T12:50:50.449Z,18464
2022-10-29T12:51:51.089Z,17476
2022-10-29T12:52:51.675Z,17132
2022-10-29T12:53:52.274Z,17240
2022-10-29T12:54:52.875Z,17276
2022-10-29T12:55:53.477Z,17080
2022-10-29T12:56:54.078Z,16728
2022-10-29T12:57:54.682Z,16288
2022-10-29T12:58:55.281Z,16148
2022-10-29T12:59:55.884Z,16640
2022-10-29T13:00:56.526Z,15140
2022-10-29T13:02:10.972Z,14800
2022-10-29T13:02:58.984Z,14288
2022-10-29T13:03:59.795Z,13692
2022-10-29T13:05:00.397Z,13560
2022-10-29T13:06:00.997Z,13948
2022-10-29T13:07:01.601Z,14584
2022-10-29T13:08:02.203Z,14988
2022-10-29T13:09:02.805Z,15160
2022-10-29T13:10:03.404Z,15248
2022-10-29T13:11:04.006Z,15248
2022-10-29T13:12:04.607Z,15452
2022-10-29T13:13:05.218Z,16448
2022-10-29T13:14:05.831Z,18176
2022-10-29T13:15:06.433Z,19584
2022-10-29T13:16:07.043Z,20512
2022-10-29T13:17:07.637Z,21664
2022-10-29T13:18:08.236Z,22368
2022-10-29T13:19:08.837Z,24192
2022-10-29T13:20:09.438Z,44160
2022-10-29T13:21:10.042Z,63360
2022-10-29T13:22:10.644Z,58624
2022-10-29T13:23:11.248Z,60928
2022-10-29T13:24:11.852Z,70720
2022-10-29T13:25:12.450Z,81152
2022-10-29T13:26:13.058Z,59712
2022-10-29T13:27:13.657Z,29600
2022-10-29T13:28:14.259Z,28064
2022-10-29T13:29:14.859Z,23776
2022-10-29T13:30:15.459Z,22848
2022-10-29T13:31:16.079Z,24352
2022-10-29T13:32:16.678Z,25632
2022-10-29T13:33:17.280Z,23328
2022-10-29T13:34:17.884Z,22720
2022-10-29T13:35:18.484Z,26016
2022-10-29T13:36:19.085Z,25920
2022-10-29T13:37:19.692Z,24928
2022-10-29T13:38:20.320Z,22368
2022-10-29T13:39:20.888Z,24352
2022-10-29T13:40:21.485Z,23072
2022-10-29T13:41:22.086Z,21984
2022-10-29T13:42:22.686Z,22112
2022-10-29T13:43:23.288Z,22080
2022-10-29T13:44:23.888Z,21216
2022-10-29T13:45:24.501Z,19776
2022-10-29T13:46:25.115Z,18432
2022-10-29T13:47:25.714Z,16832
2022-10-29T13:48:26.314Z,15324
2022-10-29T13:49:26.918Z,14092
2022-10-29T13:50:27.515Z,13272
2022-10-29T13:51:28.155Z,12832
2022-10-29T13:52:28.746Z,12612
2022-10-29T13:53:29.348Z,12612
2022-10-29T13:54:29.950Z,12780
2022-10-29T13:55:30.550Z,13160
2022-10-29T13:56:31.150Z,13656
2022-10-29T13:57:31.758Z,14008
2022-10-29T13:58:32.372Z,13880
2022-10-29T13:59:32.977Z,13956
2022-10-29T14:00:33.588Z,14108
2022-10-29T14:01:34.315Z,14320
2022-10-29T14:02:35.004Z,14732
2022-10-29T14:03:35.567Z,15156